createdAt,value
2017-05-09T00:00:29.544Z,6.88
2017-05-09T00:01:38.497Z,6.74
2017-05-09T00:02:47.771Z,6.81
2017-05-09T00:03:56.725Z,6.84
2017-05-09T00:05:06.093Z,6.81
2017-05-09T00:06:15.345Z,6.81
2017-05-09T00:07:24.299Z,6.88
2017-05-09T00:08:33.336Z,6.87
2017-05-09T00:09:42.291Z,6.81
2017-05-09T00:10:51.247Z,6.77
2017-05-09T00:12:00.502Z,6.74
2017-05-09T00:13:09.458Z,6.79
2017-05-09T00:14:18.421Z,6.74
2017-05-09T00:15:27.382Z,6.7
2017-05-09T00:16:36.424Z,6.7
2017-05-09T00:17:45.677Z,6.69
2017-05-09T00:18:54.630Z,6.79
2017-05-09T00:20:03.583Z,6.61
2017-05-09T00:21:12.624Z,6.66
2017-05-09T00:22:21.618Z,6.62
2017-05-09T00:23:30.874Z,6.67
2017-05-09T00:24:39.833Z,6.69
2017-05-09T00:25:48.791Z,6.67
2017-05-09T00:26:57.742Z,6.71
2017-05-09T00:28:06.688Z,6.77
2017-05-09T00:29:15.935Z,6.67
2017-05-09T00:30:25.221Z,6.8
2017-05-09T00:31:34.175Z,6.74
2017-05-09T00:32:43.137Z,6.76
2017-05-09T00:33:52.093Z,6.71
2017-05-09T00:35:01.298Z,6.79
2017-05-09T00:36:10.253Z,6.81
2017-05-09T00:37:19.204Z,6.89
2017-05-09T00:38:28.195Z,6.74
2017-05-09T00:39:37.234Z,6.87
2017-05-09T00:40:46.489Z,6.81
2017-05-09T00:41:55.443Z,6.85
2017-05-09T00:43:04.397Z,6.94
2017-05-09T00:44:13.349Z,6.85
2017-05-09T00:45:22.378Z,6.97
2017-05-09T00:46:31.632Z,6.97
2017-05-09T00:47:40.582Z,6.94
2017-05-09T00:48:49.626Z,6.94
2017-05-09T00:49:58.576Z,6.94
2017-05-09T00:51:08.026Z,6.94
2017-05-09T00:52:17.280Z,6.92
2017-05-09T00:53:26.411Z,6.92
2017-05-09T00:54:35.373Z,6.91
2017-05-09T00:55:44.327Z,6.94
2017-05-09T00:56:53.284Z,6.94
2017-05-09T00:58:02.543Z,6.98
2017-05-09T00:59:11.505Z,6.94
2017-05-09T01:00:20.460Z,6.88
2017-05-09T01:01:29.409Z,6.87
2017-05-09T01:02:38.358Z,6.81
2017-05-09T01:03:47.557Z,6.76
2017-05-09T01:04:56.504Z,6.87
2017-05-09T01:06:05.454Z,6.87
2017-05-09T01:07:14.410Z,6.92
2017-05-09T01:08:23.370Z,6.92
2017-05-09T01:09:32.626Z,6.91
2017-05-09T01:10:41.589Z,6.88
2017-05-09T01:11:50.543Z,6.88
2017-05-09T01:12:59.599Z,6.85
2017-05-09T01:14:08.556Z,6.97
2017-05-09T01:15:17.807Z,6.95
2017-05-09T01:16:26.758Z,6.92
2017-05-09T01:17:35.709Z,7.06
2017-05-09T01:18:44.669Z,6.91
2017-05-09T01:19:53.625Z,6.92
2017-05-09T01:21:02.882Z,6.99
2017-05-09T01:22:11.830Z,6.94
2017-05-09T01:23:20.781Z,6.89
2017-05-09T01:24:29.911Z,6.87
2017-05-09T01:25:38.864Z,6.85
2017-05-09T01:26:48.119Z,6.89
2017-05-09T01:27:57.068Z,6.88
2017-05-09T01:29:06.021Z,6.77
2017-05-09T01:30:14.972Z,6.76
2017-05-09T01:31:23.925Z,6.67
2017-05-09T01:32:33.174Z,6.77
2017-05-09T01:33:42.137Z,6.76
2017-05-09T01:34:51.212Z,6.79
2017-05-09T01:36:00.165Z,6.76
2017-05-09T01:37:09.121Z,6.71
2017-05-09T01:38:18.378Z,6.74
2017-05-09T01:39:27.658Z,6.69
2017-05-09T01:40:36.614Z,6.74
2017-05-09T01:41:45.567Z,6.64
2017-05-09T01:42:54.843Z,6.71
2017-05-09T01:44:04.056Z,6.64
2017-05-09T01:45:13.011Z,6.64
2017-05-09T01:46:22.050Z,6.59
2017-05-09T01:47:31.011Z,6.64
2017-05-09T01:48:39.960Z,6.69
2017-05-09T01:49:49.219Z,6.69
2017-05-09T01:50:58.171Z,6.76
2017-05-09T01:52:07.212Z,6.89
2017-05-09T01:53:16.189Z,6.84
2017-05-09T01:54:25.149Z,6.81
2017-05-09T01:55:34.350Z,6.89
2017-05-09T01:56:43.304Z,6.81
2017-05-09T01:57:52.351Z,6.84
2017-05-09T01:59:01.388Z,6.84
2017-05-09T02:00:10.432Z,6.84
2017-05-09T02:01:19.686Z,6.87
2017-05-09T02:02:28.675Z,6.87
2017-05-09T02:03:37.632Z,6.85
2017-05-09T02:04:46.677Z,6.84
2017-05-09T02:05:55.626Z,6.84
2017-05-09T02:07:04.835Z,6.85
2017-05-09T02:08:13.789Z,6.89
2017-05-09T02:09:22.741Z,6.92
2017-05-09T02:10:31.691Z,6.87
2017-05-09T02:11:40.647Z,7.05
2017-05-09T02:12:49.850Z,7.07
2017-05-09T02:13:58.806Z,6.99
2017-05-09T02:15:07.762Z,7.03
2017-05-09T02:16:16.714Z,7.06
2017-05-09T02:17:25.714Z,7.09
2017-05-09T02:18:34.966Z,7.1
2017-05-09T02:19:43.921Z,7.13
2017-05-09T02:20:52.872Z,7.17
2017-05-09T02:22:01.827Z,7.2
2017-05-09T02:23:10.790Z,7.17
2017-05-09T02:24:20.055Z,7.13
2017-05-09T02:25:29.024Z,7.17
2017-05-09T02:26:37.985Z,7.13
2017-05-09T02:27:46.935Z,7.13
2017-05-09T02:28:55.979Z,7.17
2017-05-09T02:30:05.238Z,7.28
2017-05-09T02:31:14.196Z,7.16
2017-05-09T02:32:23.153Z,7.2
2017-05-09T02:33:32.103Z,7.2
2017-05-09T02:34:41.050Z,7.2
2017-05-09T02:35:50.313Z,7.16
2017-05-09T02:36:59.268Z,7.17
2017-05-09T02:38:08.220Z,7.23
2017-05-09T02:39:17.502Z,7.2
2017-05-09T02:40:26.458Z,7.24
2017-05-09T02:41:35.707Z,7.24
2017-05-09T02:42:44.653Z,7.21
2017-05-09T02:43:53.699Z,7.24
2017-05-09T02:45:02.656Z,7.27
2017-05-09T02:46:11.601Z,7.28
2017-05-09T02:47:20.814Z,7.15
2017-05-09T02:48:29.860Z,7.3
2017-05-09T02:49:38.815Z,7.3
2017-05-09T02:50:47.764Z,7.27
2017-05-09T02:51:56.716Z,7.23
2017-05-09T02:53:06.061Z,7.25
2017-05-09T02:54:15.014Z,7.24
2017-05-09T02:55:24.054Z,7.24
2017-05-09T02:56:33.002Z,7.25
2017-05-09T02:57:41.950Z,7.28
2017-05-09T02:58:51.204Z,7.21
2017-05-09T03:00:00.161Z,7.23
2017-05-09T03:01:09.115Z,7.24
2017-05-09T03:02:18.103Z,7.3
2017-05-09T03:03:27.150Z,7.3
2017-05-09T03:04:36.444Z,7.37
2017-05-09T03:05:45.395Z,7.25
2017-05-09T03:06:54.353Z,7.3
2017-05-09T03:08:03.305Z,7.16
2017-05-09T03:09:12.260Z,7.13
2017-05-09T03:10:36.651Z,7.17
2017-05-09T03:11:45.603Z,7.17
2017-05-09T03:12:54.553Z,7.23
2017-05-09T03:14:03.518Z,7.15
2017-05-09T03:15:12.470Z,7.13
2017-05-09T03:16:21.666Z,7.2
2017-05-09T03:17:30.625Z,7.21
2017-05-09T03:18:39.576Z,7.25
2017-05-09T03:19:48.535Z,7.25
2017-05-09T03:20:57.487Z,7.28
2017-05-09T03:22:06.740Z,7.24
2017-05-09T03:23:15.698Z,7.31
2017-05-09T03:24:24.653Z,7.34
2017-05-09T03:25:33.930Z,7.39
2017-05-09T03:26:42.887Z,7.35
2017-05-09T03:27:52.087Z,7.34
2017-05-09T03:29:01.051Z,7.27
2017-05-09T03:30:10.036Z,7.37
2017-05-09T03:31:18.983Z,7.35
2017-05-09T03:32:27.939Z,7.32
2017-05-09T03:33:37.139Z,7.42
2017-05-09T03:34:46.093Z,7.3
2017-05-09T03:35:55.045Z,7.4
2017-05-09T03:37:04.010Z,7.39
2017-05-09T03:38:12.966Z,7.4
2017-05-09T03:39:22.191Z,7.39
2017-05-09T03:40:31.323Z,7.35
2017-05-09T03:41:40.278Z,7.37
2017-05-09T03:42:49.231Z,7.42
2017-05-09T03:43:58.275Z,7.32
2017-05-09T03:45:07.477Z,7.37
2017-05-09T03:46:16.427Z,7.34
2017-05-09T03:47:25.376Z,7.34
2017-05-09T03:48:34.423Z,7.32
2017-05-09T03:49:43.716Z,7.37
2017-05-09T03:50:52.915Z,7.37
2017-05-09T03:52:01.864Z,7.39
2017-05-09T03:53:10.819Z,7.35
2017-05-09T03:54:19.780Z,7.5
2017-05-09T03:55:28.736Z,7.48
2017-05-09T03:56:38.062Z,7.49
2017-05-09T03:57:47.097Z,7.58
2017-05-09T03:58:56.061Z,7.53
2017-05-09T04:00:05.009Z,7.46
2017-05-09T04:01:13.967Z,7.55
2017-05-09T04:02:23.226Z,7.52
2017-05-09T04:03:32.193Z,7.63
2017-05-09T04:04:41.238Z,7.53
2017-05-09T04:05:50.206Z,7.53
2017-05-09T04:06:59.164Z,7.53
2017-05-09T04:08:08.458Z,7.5
2017-05-09T04:09:17.410Z,7.53
2017-05-09T04:10:26.367Z,7.57
2017-05-09T04:11:35.316Z,7.49
2017-05-09T04:12:44.268Z,7.57
2017-05-09T04:13:53.477Z,7.55
2017-05-09T04:15:02.430Z,7.6
2017-05-09T04:16:11.386Z,7.57
2017-05-09T04:17:20.662Z,7.63
2017-05-09T04:18:29.619Z,7.69
2017-05-09T04:19:38.830Z,7.71
2017-05-09T04:20:47.781Z,7.74
2017-05-09T04:21:56.741Z,7.77
2017-05-09T04:23:05.730Z,7.85
2017-05-09T04:24:14.766Z,7.82
2017-05-09T04:25:24.071Z,7.77
2017-05-09T04:26:33.023Z,7.8
2017-05-09T04:27:41.976Z,7.83
2017-05-09T04:28:50.928Z,7.83
2017-05-09T04:29:59.971Z,7.87
2017-05-09T04:31:09.266Z,7.86
2017-05-09T04:32:18.217Z,7.85
2017-05-09T04:33:27.179Z,7.86
2017-05-09T04:34:36.133Z,7.82
2017-05-09T04:35:45.081Z,7.86
2017-05-09T04:36:54.283Z,7.89
2017-05-09T04:38:03.240Z,7.9
2017-05-09T04:39:12.196Z,7.97
2017-05-09T04:40:21.152Z,7.98
2017-05-09T04:41:30.108Z,7.95
2017-05-09T04:42:39.328Z,7.86
2017-05-09T04:43:48.611Z,7.93
2017-05-09T04:44:57.648Z,7.95
2017-05-09T04:46:06.602Z,7.93
2017-05-09T04:47:15.552Z,7.93
2017-05-09T04:48:24.756Z,7.93
2017-05-09T04:49:33.717Z,7.92
2017-05-09T04:50:42.665Z,7.92
2017-05-09T04:51:51.712Z,7.86
2017-05-09T04:53:00.670Z,7.97
2017-05-09T04:54:09.874Z,7.89
2017-05-09T04:55:18.821Z,7.97
2017-05-09T04:56:27.779Z,7.97
2017-05-09T04:57:36.733Z,7.93
2017-05-09T04:58:46.022Z,7.92
2017-05-09T04:59:55.237Z,7.9
2017-05-09T05:01:04.192Z,7.93
2017-05-09T05:02:13.147Z,7.95
2017-05-09T05:03:22.099Z,7.98
2017-05-09T05:04:31.054Z,7.9
2017-05-09T05:05:40.343Z,7.97
2017-05-09T05:06:49.297Z,7.95
2017-05-09T05:07:58.252Z,7.97
2017-05-09T05:09:07.202Z,7.93
2017-05-09T05:10:16.150Z,7.98
2017-05-09T05:11:25.360Z,7.93
2017-05-09T05:12:34.314Z,7.93
2017-05-09T05:13:43.266Z,8.02
2017-05-09T05:14:52.545Z,8.01
2017-05-09T05:16:01.501Z,8.02
2017-05-09T05:17:10.705Z,8.05
2017-05-09T05:18:19.656Z,8.19
2017-05-09T05:19:28.860Z,8.19
2017-05-09T05:20:37.813Z,8.16
2017-05-09T05:21:46.952Z,8.15
2017-05-09T05:22:56.155Z,8.23
2017-05-09T05:24:06.037Z,8.16
2017-05-09T05:25:14.998Z,8.16
2017-05-09T05:26:23.950Z,8.3
2017-05-09T05:27:32.899Z,8.26
2017-05-09T05:28:42.203Z,8.34
2017-05-09T05:29:51.156Z,8.38
2017-05-09T05:31:00.106Z,8.36
2017-05-09T05:32:09.145Z,8.38
2017-05-09T05:33:18.102Z,8.41
2017-05-09T05:34:27.306Z,8.4
2017-05-09T05:35:36.261Z,8.38
2017-05-09T05:36:45.216Z,8.29
2017-05-09T05:37:54.359Z,8.22
2017-05-09T05:39:03.332Z,8.25
2017-05-09T05:40:12.624Z,8.19
2017-05-09T05:41:21.648Z,8.4
2017-05-09T05:42:31.089Z,8.38
2017-05-09T05:43:40.106Z,8.41
2017-05-09T05:44:49.094Z,8.38
2017-05-09T05:45:58.419Z,8.52
2017-05-09T05:47:07.525Z,8.5
2017-05-09T05:48:16.479Z,8.55
2017-05-09T05:49:25.671Z,8.52
2017-05-09T05:50:34.624Z,8.5
2017-05-09T05:51:44.644Z,8.48
2017-05-09T05:52:53.631Z,8.52
2017-05-09T05:54:02.704Z,8.58
2017-05-09T05:55:11.839Z,8.61
2017-05-09T05:56:20.792Z,8.62
2017-05-09T05:57:30.096Z,8.58
2017-05-09T05:58:39.058Z,8.63
2017-05-09T05:59:48.337Z,8.62
2017-05-09T06:00:57.343Z,8.63
2017-05-09T06:02:06.302Z,8.65
2017-05-09T06:03:15.556Z,8.63
2017-05-09T06:04:24.514Z,8.74
2017-05-09T06:05:33.543Z,8.81
2017-05-09T06:06:42.515Z,8.79
2017-05-09T06:07:51.862Z,8.73
2017-05-09T06:09:01.536Z,8.81
2017-05-09T06:10:10.714Z,8.89
2017-05-09T06:11:19.807Z,8.95
2017-05-09T06:12:28.931Z,8.86
2017-05-09T06:13:38.074Z,9.04
2017-05-09T06:14:47.601Z,8.99
2017-05-09T06:15:56.631Z,8.96
2017-05-09T06:17:05.822Z,9.01
2017-05-09T06:18:14.975Z,9.11
2017-05-09T06:19:23.977Z,9.11
2017-05-09T06:20:33.559Z,9.2
2017-05-09T06:21:42.598Z,9.32
2017-05-09T06:22:51.554Z,9.31
2017-05-09T06:24:00.513Z,9.36
2017-05-09T06:25:09.475Z,9.32
2017-05-09T06:26:18.680Z,9.42
2017-05-09T06:27:27.638Z,9.47
2017-05-09T06:28:36.591Z,9.48
2017-05-09T06:29:45.549Z,9.51
2017-05-09T06:30:54.506Z,9.5
2017-05-09T06:32:03.787Z,9.58
2017-05-09T06:33:12.742Z,9.61
2017-05-09T06:34:22.019Z,9.79
2017-05-09T06:35:30.971Z,9.81
2017-05-09T06:36:39.965Z,9.87
2017-05-09T06:37:49.225Z,10.05
2017-05-09T06:38:58.268Z,10.09
2017-05-09T06:40:07.219Z,10.12
2017-05-09T06:41:16.176Z,10.17
2017-05-09T06:42:25.456Z,10.15
2017-05-09T06:43:34.710Z,10.11
2017-05-09T06:44:43.661Z,10.11
2017-05-09T06:45:52.956Z,10.15
2017-05-09T06:47:01.915Z,10.14
2017-05-09T06:48:10.868Z,10.05
2017-05-09T06:49:20.462Z,10.02
2017-05-09T06:50:29.422Z,9.99
2017-05-09T06:51:38.480Z,9.91
2017-05-09T06:52:47.576Z,9.87
2017-05-09T06:53:56.566Z,10.05
2017-05-09T06:55:05.935Z,9.96
2017-05-09T06:56:14.914Z,9.86
2017-05-09T06:57:23.886Z,9.86
2017-05-09T06:58:32.862Z,9.87
2017-05-09T06:59:41.930Z,9.87
2017-05-09T07:00:51.204Z,9.9
2017-05-09T07:02:00.185Z,9.9
2017-05-09T07:03:09.159Z,9.97
2017-05-09T07:04:18.137Z,10.02
2017-05-09T07:05:27.201Z,10.11
2017-05-09T07:06:36.462Z,10.11
2017-05-09T07:07:45.422Z,10.14
2017-05-09T07:08:54.380Z,10.17
2017-05-09T07:10:03.339Z,10.23
2017-05-09T07:11:12.293Z,10.32
2017-05-09T07:12:21.820Z,10.34
2017-05-09T07:13:30.776Z,10.41
2017-05-09T07:14:39.768Z,10.45
2017-05-09T07:15:48.724Z,10.48
2017-05-09T07:16:57.679Z,10.45
2017-05-09T07:18:07.212Z,10.48
2017-05-09T07:19:16.179Z,10.63
2017-05-09T07:20:25.176Z,10.67
2017-05-09T07:21:34.138Z,10.71
2017-05-09T07:22:43.679Z,10.86
2017-05-09T07:23:53.204Z,10.82
2017-05-09T07:25:02.175Z,10.67
2017-05-09T07:26:11.137Z,10.55
2017-05-09T07:27:20.180Z,10.48
2017-05-09T07:28:29.134Z,10.51
2017-05-09T07:29:38.342Z,10.48
2017-05-09T07:30:47.353Z,10.42
2017-05-09T07:31:56.312Z,10.36
2017-05-09T07:33:05.356Z,10.33
2017-05-09T07:34:14.310Z,10.3
2017-05-09T07:35:23.524Z,10.45
2017-05-09T07:36:32.477Z,10.4
2017-05-09T07:37:41.439Z,10.4
2017-05-09T07:38:50.406Z,10.3
2017-05-09T07:39:59.366Z,10.41
2017-05-09T07:41:08.578Z,10.41
2017-05-09T07:42:17.545Z,10.47
2017-05-09T07:43:26.830Z,10.36
2017-05-09T07:44:35.821Z,10.47
2017-05-09T07:45:44.787Z,10.45
2017-05-09T07:46:54.134Z,10.61
2017-05-09T07:48:03.183Z,10.71
2017-05-09T07:49:12.171Z,10.73
2017-05-09T07:50:21.132Z,10.91
2017-05-09T07:51:30.090Z,11.03
2017-05-09T07:52:39.352Z,11.07
2017-05-09T07:53:48.315Z,11.15
2017-05-09T07:54:57.274Z,11.24
2017-05-09T07:56:06.322Z,11.28
2017-05-09T07:57:15.368Z,11.33
2017-05-09T07:58:24.617Z,11.35
2017-05-09T07:59:33.660Z,11.46
2017-05-09T08:00:42.623Z,11.65
2017-05-09T08:01:51.668Z,11.67
2017-05-09T08:03:00.625Z,11.82
2017-05-09T08:04:09.877Z,11.79
2017-05-09T08:05:18.839Z,11.67
2017-05-09T08:06:27.796Z,11.57
2017-05-09T08:07:36.753Z,11.57
2017-05-09T08:08:45.707Z,11.6
2017-05-09T08:09:54.974Z,11.55
2017-05-09T08:11:03.931Z,11.47
2017-05-09T08:12:12.887Z,11.46
2017-05-09T08:13:21.930Z,11.36
2017-05-09T08:14:30.890Z,11.35
2017-05-09T08:15:40.150Z,11.37
2017-05-09T08:16:49.193Z,11.37
2017-05-09T08:17:58.158Z,11.36
2017-05-09T08:19:07.116Z,11.37
2017-05-09T08:20:16.085Z,11.33
2017-05-09T08:21:25.356Z,11.35
2017-05-09T08:22:34.315Z,11.44
2017-05-09T08:23:43.276Z,11.49
2017-05-09T08:24:52.321Z,11.62
2017-05-09T08:26:01.278Z,11.69
2017-05-09T08:27:10.484Z,11.73
2017-05-09T08:28:19.533Z,11.83
2017-05-09T08:29:28.529Z,11.98
2017-05-09T08:30:37.481Z,11.98
2017-05-09T08:31:46.611Z,11.99
2017-05-09T08:32:55.870Z,12.01
2017-05-09T08:34:04.910Z,12.17
2017-05-09T08:35:14.043Z,12.1
2017-05-09T08:36:22.997Z,12.12
2017-05-09T08:37:31.951Z,12.09
2017-05-09T08:38:41.213Z,12.04
2017-05-09T08:39:50.166Z,11.96
2017-05-09T08:40:59.209Z,12.14
2017-05-09T08:42:08.165Z,12.19
2017-05-09T08:43:17.123Z,12.24
2017-05-09T08:44:26.393Z,12.31
2017-05-09T08:45:35.349Z,12.31
2017-05-09T08:46:44.318Z,12.42
2017-05-09T08:47:53.361Z,12.32
2017-05-09T08:49:02.318Z,12.32
2017-05-09T08:50:11.661Z,12.23
2017-05-09T08:51:20.618Z,12.19
2017-05-09T08:52:29.578Z,12.28
2017-05-09T08:53:38.540Z,12.32
2017-05-09T08:54:47.501Z,12.41
2017-05-09T08:55:56.791Z,12.41
2017-05-09T08:57:05.837Z,12.2
2017-05-09T08:58:14.791Z,12.23
2017-05-09T08:59:23.923Z,12.28
2017-05-09T09:00:32.881Z,12.34
2017-05-09T09:01:42.137Z,12.32
2017-05-09T09:02:51.093Z,12.32
2017-05-09T09:04:00.052Z,12.29
2017-05-09T09:05:09.011Z,12.19
2017-05-09T09:06:17.968Z,12.16
2017-05-09T09:07:27.313Z,11.96
2017-05-09T09:08:36.356Z,11.83
2017-05-09T09:09:45.304Z,11.61
2017-05-09T09:10:54.591Z,11.19
2017-05-09T09:12:03.549Z,10.74
2017-05-09T09:13:12.811Z,10.51
2017-05-09T09:14:21.768Z,10.04
2017-05-09T09:15:30.724Z,9.69
2017-05-09T09:16:39.676Z,9.5
2017-05-09T09:17:48.633Z,9.29
2017-05-09T09:18:57.895Z,9.18
2017-05-09T09:20:06.857Z,9.23
2017-05-09T09:21:15.819Z,9.11
2017-05-09T09:22:24.774Z,9.1
2017-05-09T09:23:33.726Z,9.17
2017-05-09T09:24:42.981Z,9.31
2017-05-09T09:25:51.938Z,9.42
2017-05-09T09:27:00.899Z,9.46
2017-05-09T09:28:09.847Z,9.51
2017-05-09T09:29:18.804Z,9.6
2017-05-09T09:30:28.056Z,9.51
2017-05-09T09:31:37.006Z,9.64
2017-05-09T09:32:45.966Z,9.6
2017-05-09T09:33:54.930Z,9.57
2017-05-09T09:35:04.299Z,9.65
2017-05-09T09:36:13.652Z,9.78
2017-05-09T09:37:22.608Z,9.89
2017-05-09T09:38:31.647Z,9.84
2017-05-09T09:39:40.695Z,9.86
2017-05-09T09:40:49.663Z,9.89
2017-05-09T09:41:59.282Z,9.81
2017-05-09T09:43:08.239Z,9.74
2017-05-09T09:44:17.276Z,9.71
2017-05-09T09:45:26.229Z,9.81
2017-05-09T09:46:35.195Z,9.76
2017-05-09T09:47:44.541Z,9.76
2017-05-09T09:48:53.496Z,9.78
2017-05-09T09:50:02.774Z,9.71
2017-05-09T09:51:11.727Z,9.74
2017-05-09T09:52:20.689Z,9.64
2017-05-09T09:53:29.946Z,9.72
2017-05-09T09:54:38.900Z,9.76
2017-05-09T09:55:47.942Z,9.83
2017-05-09T09:56:56.891Z,9.71
2017-05-09T09:58:06.165Z,9.81
2017-05-09T09:59:15.427Z,9.78
2017-05-09T10:00:24.385Z,9.99
2017-05-09T10:01:33.342Z,10.2
2017-05-09T10:02:42.302Z,10.22
2017-05-09T10:03:51.347Z,10.12
2017-05-09T10:05:00.688Z,10.04
2017-05-09T10:06:09.643Z,9.99
2017-05-09T10:07:18.605Z,10.07
2017-05-09T10:08:27.559Z,10.11
2017-05-09T10:09:36.516Z,10.12
2017-05-09T10:10:45.788Z,10.18
2017-05-09T10:11:55.066Z,10.22
2017-05-09T10:13:04.056Z,10.25
2017-05-09T10:14:13.015Z,10.34
2017-05-09T10:15:21.972Z,10.45
2017-05-09T10:16:31.229Z,10.45
2017-05-09T10:17:40.190Z,10.51
2017-05-09T10:18:49.238Z,10.59
2017-05-09T10:19:58.278Z,10.52
2017-05-09T10:21:07.239Z,10.7
2017-05-09T10:22:16.589Z,10.79
2017-05-09T10:23:25.634Z,10.84
2017-05-09T10:24:34.590Z,10.85
2017-05-09T10:25:43.554Z,10.86
2017-05-09T10:26:52.508Z,10.85
2017-05-09T10:28:01.771Z,10.79
2017-05-09T10:29:10.726Z,10.67
2017-05-09T10:30:19.768Z,10.47
2017-05-09T10:31:29.050Z,10.52
2017-05-09T10:32:38.012Z,10.4
2017-05-09T10:33:47.361Z,10.38
2017-05-09T10:34:56.318Z,10.22
2017-05-09T10:36:05.272Z,10.22
2017-05-09T10:37:14.236Z,10.15
2017-05-09T10:38:23.275Z,10.17
2017-05-09T10:39:32.537Z,10.12
2017-05-09T10:40:41.495Z,10.14
2017-05-09T10:41:50.450Z,10.17
2017-05-09T10:42:59.403Z,10.2
2017-05-09T10:44:08.683Z,10.15
2017-05-09T10:45:17.887Z,10.18
2017-05-09T10:46:26.842Z,10.34
2017-05-09T10:47:35.804Z,10.36
2017-05-09T10:48:44.758Z,10.47
2017-05-09T10:49:53.712Z,10.51
2017-05-09T10:51:02.968Z,10.61
2017-05-09T10:52:11.929Z,10.71
2017-05-09T10:53:20.977Z,10.73
2017-05-09T10:54:29.972Z,10.73
2017-05-09T10:55:38.934Z,10.81
2017-05-09T10:56:48.189Z,10.85
2017-05-09T10:57:57.143Z,10.76
2017-05-09T10:59:06.099Z,10.76
2017-05-09T11:00:15.378Z,10.74
2017-05-09T11:01:24.422Z,10.53
2017-05-09T11:02:33.681Z,10.56
2017-05-09T11:03:42.638Z,10.51
2017-05-09T11:04:51.597Z,10.44
2017-05-09T11:06:00.552Z,10.32
2017-05-09T11:07:09.509Z,10.22
2017-05-09T11:08:18.715Z,10.09
2017-05-09T11:09:27.763Z,9.99
2017-05-09T11:10:36.714Z,9.89
2017-05-09T11:11:45.665Z,9.79
2017-05-09T11:12:54.622Z,9.86
2017-05-09T11:14:03.829Z,9.75
2017-05-09T11:15:12.783Z,9.68
2017-05-09T11:16:21.737Z,9.53
2017-05-09T11:17:30.690Z,9.48
2017-05-09T11:18:39.651Z,9.47
2017-05-09T11:19:48.906Z,9.18
2017-05-09T11:20:57.861Z,9.2
2017-05-09T11:22:06.862Z,9.08
2017-05-09T11:23:15.819Z,8.99
2017-05-09T11:24:24.772Z,8.95
2017-05-09T11:25:34.031Z,8.8
2017-05-09T11:26:42.986Z,8.71
2017-05-09T11:27:51.938Z,8.62
2017-05-09T11:29:00.975Z,8.53
2017-05-09T11:30:09.931Z,8.41
2017-05-09T11:31:19.186Z,8.36
2017-05-09T11:32:28.167Z,8.26
2017-05-09T11:33:37.124Z,8.1
2017-05-09T11:34:46.077Z,8.07
2017-05-09T11:35:55.033Z,8.05
2017-05-09T11:37:04.291Z,7.98
2017-05-09T11:38:13.250Z,8.01
2017-05-09T11:39:22.206Z,7.93
2017-05-09T11:40:31.160Z,7.89
2017-05-09T11:41:40.109Z,7.93
2017-05-09T11:42:49.362Z,7.97
2017-05-09T11:43:58.312Z,7.89
2017-05-09T11:45:07.356Z,7.86
2017-05-09T11:46:16.309Z,7.83
2017-05-09T11:47:25.258Z,7.82
2017-05-09T11:48:34.514Z,7.82
2017-05-09T11:49:43.468Z,7.83
2017-05-09T11:50:52.429Z,7.8
2017-05-09T11:52:01.716Z,7.83
2017-05-09T11:53:10.998Z,7.9
2017-05-09T11:54:20.251Z,7.93
2017-05-09T11:55:29.206Z,8.01
2017-05-09T11:56:38.242Z,8.05
2017-05-09T11:57:47.191Z,8.11
2017-05-09T11:58:56.153Z,8.16
2017-05-09T12:00:05.496Z,8.2
2017-05-09T12:01:14.445Z,8.28
2017-05-09T12:02:23.397Z,8.3
2017-05-09T12:03:32.349Z,8.36
2017-05-09T12:04:41.316Z,8.38
2017-05-09T12:05:50.522Z,8.45
2017-05-09T12:06:59.473Z,8.48
2017-05-09T12:08:08.437Z,8.65
2017-05-09T12:09:17.391Z,8.61
2017-05-09T12:10:26.511Z,8.55
2017-05-09T12:11:35.770Z,8.7
2017-05-09T12:12:44.730Z,8.74
2017-05-09T12:13:53.680Z,8.74
2017-05-09T12:15:02.636Z,8.86
2017-05-09T12:16:11.592Z,8.83
2017-05-09T12:17:20.799Z,8.91
2017-05-09T12:18:29.752Z,8.84
2017-05-09T12:19:38.703Z,8.89
2017-05-09T12:20:47.659Z,8.81
2017-05-09T12:21:56.941Z,8.73
2017-05-09T12:23:06.144Z,8.83
2017-05-09T12:24:15.097Z,8.83
2017-05-09T12:25:24.139Z,8.86
2017-05-09T12:26:33.176Z,8.84
2017-05-09T12:27:42.134Z,8.84
2017-05-09T12:28:51.343Z,8.84
2017-05-09T12:30:00.299Z,8.74
2017-05-09T12:31:09.251Z,8.83
2017-05-09T12:32:18.203Z,8.79
2017-05-09T12:33:27.155Z,8.74
2017-05-09T12:34:36.441Z,8.77
2017-05-09T12:35:45.393Z,8.74
2017-05-09T12:36:54.434Z,8.71
2017-05-09T12:38:03.383Z,8.63
2017-05-09T12:39:12.344Z,8.66
2017-05-09T12:40:21.597Z,8.55
2017-05-09T12:41:30.553Z,8.59
2017-05-09T12:42:39.517Z,8.65
2017-05-09T12:43:48.496Z,8.59
2017-05-09T12:44:57.449Z,8.61
2017-05-09T12:46:06.746Z,8.66
2017-05-09T12:47:15.699Z,8.8
2017-05-09T12:48:24.647Z,8.81
2017-05-09T12:49:33.603Z,8.91
2017-05-09T12:50:42.549Z,8.94
2017-05-09T12:51:51.806Z,9.05
2017-05-09T12:53:00.773Z,9.15
2017-05-09T12:54:09.724Z,9.18
2017-05-09T12:55:18.674Z,9.17
2017-05-09T12:56:27.630Z,9.11
2017-05-09T12:57:36.886Z,9.04
2017-05-09T12:58:45.838Z,9.13
2017-05-09T12:59:54.791Z,9.1
2017-05-09T13:01:03.746Z,9.04
2017-05-09T13:02:13.022Z,8.87
2017-05-09T13:03:22.318Z,8.98
2017-05-09T13:04:31.275Z,9.1
2017-05-09T13:05:40.225Z,9.26
2017-05-09T13:06:49.174Z,9.31
2017-05-09T13:07:58.134Z,9.33
2017-05-09T13:09:07.385Z,9.39
2017-05-09T13:10:16.336Z,9.47
2017-05-09T13:11:25.290Z,9.48
2017-05-09T13:12:34.239Z,9.56
2017-05-09T13:13:43.233Z,9.47
2017-05-09T13:14:52.443Z,9.39
2017-05-09T13:16:01.398Z,9.4
2017-05-09T13:17:10.350Z,9.36
2017-05-09T13:18:19.301Z,9.39
2017-05-09T13:19:28.255Z,9.43
2017-05-09T13:20:37.601Z,9.46
2017-05-09T13:21:46.551Z,9.43
2017-05-09T13:22:55.507Z,9.51
2017-05-09T13:24:04.457Z,9.5
2017-05-09T13:25:13.416Z,9.46
2017-05-09T13:26:22.674Z,9.39
2017-05-09T13:27:31.633Z,9.47
2017-05-09T13:28:40.585Z,9.42
2017-05-09T13:29:49.542Z,9.48
2017-05-09T13:30:58.498Z,9.46
2017-05-09T13:32:07.753Z,9.38
2017-05-09T13:33:16.730Z,9.48
2017-05-09T13:34:25.689Z,9.46
2017-05-09T13:35:34.641Z,9.51
2017-05-09T13:36:43.917Z,9.5
2017-05-09T13:37:53.176Z,9.54
2017-05-09T13:39:02.128Z,9.53
2017-05-09T13:40:11.169Z,9.69
2017-05-09T13:41:20.130Z,9.68
2017-05-09T13:42:29.090Z,9.84
2017-05-09T13:43:38.295Z,9.79
2017-05-09T13:44:47.255Z,9.72
2017-05-09T13:45:56.302Z,9.71
2017-05-09T13:47:05.254Z,9.72
2017-05-09T13:48:14.207Z,9.66
2017-05-09T13:49:23.465Z,9.64
2017-05-09T13:50:32.419Z,9.65
2017-05-09T13:51:41.468Z,9.65
2017-05-09T13:52:50.424Z,9.65
2017-05-09T13:54:00.024Z,9.65
2017-05-09T13:55:09.375Z,9.74
2017-05-09T13:56:18.374Z,9.83
2017-05-09T13:57:27.369Z,9.75
2017-05-09T13:58:36.332Z,9.76
2017-05-09T13:59:45.290Z,9.83
2017-05-09T14:00:54.748Z,9.83
2017-05-09T14:02:04.414Z,9.72
2017-05-09T14:03:13.631Z,9.69
2017-05-09T14:04:22.841Z,9.83
2017-05-09T14:05:31.991Z,9.89
2017-05-09T14:06:41.652Z,9.86
2017-05-09T14:07:50.826Z,9.87
2017-05-09T14:08:59.811Z,10.01
2017-05-09T14:10:08.894Z,10.15
2017-05-09T14:11:17.999Z,10.18
2017-05-09T14:12:27.794Z,10.14
2017-05-09T14:13:36.862Z,10.18
2017-05-09T14:14:46.051Z,10.02
2017-05-09T14:15:55.311Z,9.89
2017-05-09T14:17:04.802Z,9.86
2017-05-09T14:18:14.122Z,9.66
2017-05-09T14:19:23.459Z,9.72
2017-05-09T14:20:32.961Z,9.78
2017-05-09T14:21:42.142Z,9.74
2017-05-09T14:22:51.458Z,9.78
2017-05-09T14:24:00.908Z,9.78
2017-05-09T14:25:10.160Z,9.79
2017-05-09T14:26:19.171Z,9.87
2017-05-09T14:27:28.160Z,9.79
2017-05-09T14:28:37.320Z,9.75
2017-05-09T14:29:46.753Z,9.71
2017-05-09T14:30:56.031Z,9.71
2017-05-09T14:32:05.061Z,9.72
2017-05-09T14:33:14.434Z,9.89
2017-05-09T14:34:23.576Z,9.96
2017-05-09T14:35:33.274Z,10.14
2017-05-09T14:36:42.384Z,10.09
2017-05-09T14:37:51.385Z,10.12
2017-05-09T14:39:00.444Z,10.11
2017-05-09T14:40:09.428Z,10.15
2017-05-09T14:41:18.669Z,10.23
2017-05-09T14:42:27.620Z,10.02
2017-05-09T14:43:36.576Z,9.86
2017-05-09T14:44:45.530Z,9.72
2017-05-09T14:45:54.495Z,9.78
2017-05-09T14:47:03.837Z,9.68
2017-05-09T14:48:12.880Z,9.64
2017-05-09T14:49:21.922Z,9.51
2017-05-09T14:50:30.875Z,9.47
2017-05-09T14:51:39.838Z,9.51
2017-05-09T14:52:49.182Z,9.69
2017-05-09T14:53:58.139Z,9.87
2017-05-09T14:55:07.125Z,9.93
2017-05-09T14:56:16.177Z,10.11
2017-05-09T14:57:25.137Z,10.38
2017-05-09T14:58:34.815Z,10.48
2017-05-09T14:59:43.768Z,10.51
2017-05-09T15:00:52.729Z,10.59
2017-05-09T15:02:01.689Z,10.59
2017-05-09T15:03:10.642Z,10.74
2017-05-09T15:04:19.848Z,10.84
2017-05-09T15:05:28.798Z,10.66
2017-05-09T15:06:37.756Z,10.55
2017-05-09T15:07:46.714Z,10.53
2017-05-09T15:08:55.728Z,10.55
2017-05-09T15:10:05.361Z,10.64
2017-05-09T15:11:14.450Z,10.67
2017-05-09T15:12:23.491Z,10.79
2017-05-09T15:13:32.607Z,10.96